Time;durP1;ratioP1;P1;durP2;ratioP2;P2;SDS_P1;SDS_P2;PMS_P1;PMS_P2;Temp;Humidity;BMP_temperature;BMP_pressure;BME280_temperature;BME280_humidity;BME280_pressure;Samples;Min_cycle;Max_cycle;Signal;HPM_P1;HPM_P2
2022/03/09 00:01:13;;;;;;;6.10;3.15;;;3.00;99.90;;;;;;4835756;29;20062;-84
2022/03/09 00:03:39;;;;;;;5.22;3.25;;;3.00;99.90;;;;;;4821485;29;20508;-85
2022/03/09 00:06:05;;;;;;;5.80;2.92;;;3.00;99.90;;;;;;4833219;29;20051;-85
2022/03/09 00:08:31;;;;;;;6.50;3.67;;;3.00;99.90;;;;;;4820074;29;20051;-85
2022/03/09 00:10:56;;;;;;;5.40;3.17;;;3.00;99.90;;;;;;4819642;29;20047;-84
2022/03/09 00:13:22;;;;;;;5.40;3.10;;;3.00;99.90;;;;;;4821397;29;20061;-85
2022/03/09 00:15:48;;;;;;;4.57;3.15;;;2.90;99.90;;;;;;4821112;29;20119;-85
2022/03/09 00:18:13;;;;;;;3.90;2.67;;;2.80;99.90;;;;;;4820769;29;20057;-85
2022/03/09 00:20:39;;;;;;;6.68;4.90;;;2.80;99.90;;;;;;4820751;29;20119;-84
2022/03/09 00:23:05;;;;;;;9.30;8.18;;;3.00;99.90;;;;;;4820608;29;20046;-84
2022/03/09 00:25:30;;;;;;;8.35;4.22;;;2.50;99.90;;;;;;4820609;29;20097;-84
2022/03/09 00:27:57;;;;;;;6.07;3.67;;;2.40;99.90;;;;;;4820593;29;20449;-84
2022/03/09 00:30:23;;;;;;;5.18;3.20;;;2.30;99.90;;;;;;4819995;29;20051;-84
2022/03/09 00:32:49;;;;;;;5.40;3.03;;;2.40;99.90;;;;;;4822534;29;20054;-84
2022/03/09 00:35:15;;;;;;;4.80;3.20;;;2.10;99.90;;;;;;4792104;29;20061;-84
2022/03/09 00:37:40;;;;;;;4.72;3.08;;;2.10;99.90;;;;;;4820583;29;20553;-84
2022/03/09 00:40:07;;;;;;;5.28;3.42;;;2.00;99.90;;;;;;4820794;29;20404;-85
2022/03/09 00:42:37;;;;;;;5.15;3.05;;;2.00;99.90;;;;;;4820852;29;20137;-84
2022/03/09 00:45:04;;;;;;;5.00;3.40;;;2.00;99.90;;;;;;4802540;29;20195;-85
2022/03/09 00:47:30;;;;;;;5.55;3.10;;;2.00;99.90;;;;;;4823959;29;20489;-84
2022/03/09 00:49:56;;;;;;;6.25;3.25;;;2.00;99.90;;;;;;4823259;29;20042;-84
2022/03/09 00:52:21;;;;;;;8.32;3.70;;;2.40;99.90;;;;;;4824372;29;20054;-85
2022/03/09 00:54:47;;;;;;;6.03;3.22;;;2.10;99.90;;;;;;4820986;29;20112;-84
2022/03/09 00:57:14;;;;;;;7.10;4.15;;;2.20;99.90;;;;;;4823033;29;20061;-84
2022/03/09 00:59:40;;;;;;;6.43;3.78;;;2.30;99.90;;;;;;4824590;29;20051;-84
2022/03/09 01:02:06;;;;;;;6.72;4.40;;;2.30;99.90;;;;;;4830812;29;20069;-84
2022/03/09 01:04:34;;;;;;;6.07;3.45;;;2.40;99.90;;;;;;4818816;29;20054;-84
2022/03/09 01:06:59;;;;;;;5.85;3.20;;;2.50;99.90;;;;;;4826457;29;20118;-84
2022/03/09 01:09:25;;;;;;;6.07;3.55;;;2.40;99.90;;;;;;4806508;29;20054;-84
2022/03/09 01:11:51;;;;;;;7.10;3.90;;;2.60;99.90;;;;;;4820899;29;20085;-84
2022/03/09 01:14:17;;;;;;;6.55;3.85;;;2.40;99.90;;;;;;4823029;29;20055;-84
2022/03/09 01:16:42;;;;;;;6.30;3.60;;;2.40;99.90;;;;;;4823626;29;20111;-84
2022/03/09 01:19:08;;;;;;;7.28;3.92;;;2.80;99.90;;;;;;4823542;29;20056;-84
2022/03/09 01:21:34;;;;;;;6.88;4.25;;;2.70;99.90;;;;;;4823646;29;20062;-85
2022/03/09 01:24:00;;;;;;;6.30;3.70;;;2.30;99.90;;;;;;4823770;29;20473;-85
2022/03/09 01:26:26;;;;;;;6.40;3.97;;;2.30;99.90;;;;;;4823635;29;20507;-84
2022/03/09 01:28:52;;;;;;;6.38;4.45;;;2.90;99.90;;;;;;4823052;29;20050;-84
2022/03/09 01:31:18;;;;;;;7.28;3.55;;;2.30;99.90;;;;;;4823562;29;20046;-84
2022/03/09 01:33:44;;;;;;;7.18;3.83;;;2.30;99.90;;;;;;4823557;29;20153;-85
2022/03/09 01:36:09;;;;;;;8.18;3.97;;;2.30;99.90;;;;;;4823734;29;20054;-84
2022/03/09 01:38:35;;;;;;;6.85;3.92;;;2.30;99.90;;;;;;4823315;29;20400;-84
2022/03/09 01:41:01;;;;;;;6.90;4.10;;;2.30;99.90;;;;;;4808383;29;20069;-84
2022/03/09 01:43:26;;;;;;;6.18;3.80;;;2.30;99.90;;;;;;4823306;29;20400;-84
2022/03/09 01:45:52;;;;;;;8.32;4.80;;;2.70;99.90;;;;;;4823371;29;20058;-84
2022/03/09 01:48:18;;;;;;;7.38;4.55;;;2.20;99.90;;;;;;4823440;29;20095;-84
2022/03/09 01:50:44;;;;;;;7.00;4.15;;;2.20;99.90;;;;;;4823108;29;20145;-84
2022/03/09 01:53:11;;;;;;;7.35;4.32;;;2.30;99.90;;;;;;4807178;29;20129;-84
2022/03/09 01:55:38;;;;;;;7.95;4.55;;;2.80;99.90;;;;;;4820121;29;20058;-84
2022/03/09 01:58:04;;;;;;;10.35;4.50;;;2.20;99.90;;;;;;4821751;29;20090;-84
2022/03/09 02:00:29;;;;;;;7.38;4.07;;;2.10;99.90;;;;;;4825658;29;20104;-84
2022/03/09 02:02:55;;;;;;;7.65;4.70;;;2.70;99.90;;;;;;4822935;29;20066;-85
2022/03/09 02:05:21;;;;;;;8.13;3.97;;;2.20;99.90;;;;;;4823218;29;20058;-84
2022/03/09 02:10:31;;;;;;;7.95;4.43;;;1.80;99.90;;;;;;4822894;29;20088;-84
2022/03/09 02:12:58;;;;;;;8.07;4.45;;;1.60;99.90;;;;;;4823631;29;20101;-84
2022/03/09 02:15:24;;;;;;;14.73;13.30;;;1.50;99.90;;;;;;4835127;29;20127;-84
2022/03/09 02:17:49;;;;;;;7.53;4.55;;;1.30;99.90;;;;;;4809299;29;20046;-84
2022/03/09 02:20:15;;;;;;;7.07;4.43;;;1.20;99.90;;;;;;4819666;29;20055;-84
2022/03/09 02:22:42;;;;;;;7.63;3.90;;;1.10;99.90;;;;;;4817081;29;20062;-84
2022/03/09 02:25:09;;;;;;;6.82;3.92;;;1.00;99.90;;;;;;4822942;29;20057;-84
2022/03/09 02:27:35;;;;;;;7.38;4.20;;;1.00;99.90;;;;;;4837173;29;20556;-84
2022/03/09 02:30:03;;;;;;;8.57;4.63;;;1.10;99.90;;;;;;4807342;29;20046;-84
2022/03/09 02:32:29;;;;;;;7.20;4.15;;;1.00;99.90;;;;;;4822368;29;20446;-84
2022/03/09 02:34:54;;;;;;;6.43;4.78;;;1.40;99.90;;;;;;4822574;29;20062;-84
2022/03/09 02:37:20;;;;;;;6.78;4.60;;;1.10;99.90;;;;;;4807218;29;20103;-84
2022/03/09 02:39:46;;;;;;;6.53;4.05;;;1.10;99.90;;;;;;4822735;29;20054;-85
2022/03/09 02:42:12;;;;;;;7.47;3.97;;;1.70;99.90;;;;;;4822589;29;20373;-84
2022/03/09 02:44:38;;;;;;;6.07;3.63;;;1.00;99.90;;;;;;4807317;29;20429;-85
2022/03/09 02:47:04;;;;;;;8.10;3.90;;;1.00;99.90;;;;;;4807654;29;20476;-84
2022/03/09 02:49:30;;;;;;;7.63;3.97;;;1.00;99.90;;;;;;4822523;29;20042;-84
2022/03/09 02:51:56;;;;;;;7.85;4.28;;;0.90;99.90;;;;;;4822661;29;20126;-84
2022/03/09 02:54:21;;;;;;;7.15;4.10;;;0.80;99.90;;;;;;4807280;29;20434;-84
2022/03/09 02:56:47;;;;;;;7.57;4.18;;;1.50;99.90;;;;;;4821378;29;20062;-85
2022/03/09 02:59:13;;;;;;;7.80;4.60;;;1.30;99.90;;;;;;4823545;29;20058;-84
2022/03/09 03:01:39;;;;;;;5.97;3.88;;;0.70;99.90;;;;;;4822589;29;20106;-84
2022/03/09 03:04:05;;;;;;;7.53;5.15;;;1.50;99.90;;;;;;4822589;29;20104;-84
2022/03/09 03:06:31;;;;;;;7.85;4.88;;;1.30;99.90;;;;;;4822262;29;20065;-84
2022/03/09 03:08:56;;;;;;;7.20;4.60;;;1.70;99.90;;;;;;4809243;29;20081;-84
2022/03/09 03:11:22;;;;;;;7.78;4.57;;;1.20;99.90;;;;;;4821523;29;20159;-84
2022/03/09 03:13:49;;;;;;;10.25;4.70;;;0.70;99.90;;;;;;4822320;29;20047;-85
2022/03/09 03:16:15;;;;;;;10.15;3.83;;;0.70;99.90;;;;;;4821972;29;20062;-85
2022/03/09 03:18:41;;;;;;;7.75;4.57;;;0.80;99.90;;;;;;4837386;29;20050;-85
2022/03/09 03:21:06;;;;;;;9.65;4.53;;;0.80;99.90;;;;;;4803979;29;20137;-84
2022/03/09 03:23:34;;;;;;;9.18;4.80;;;0.90;99.90;;;;;;4815068;29;20050;-85
2022/03/09 03:26:01;;;;;;;8.00;4.95;;;1.20;99.90;;;;;;4821329;29;20175;-84
2022/03/09 03:28:27;;;;;;;7.25;4.28;;;1.70;99.90;;;;;;4821669;29;20054;-84
2022/03/09 03:30:52;;;;;;;8.57;4.57;;;1.90;99.90;;;;;;4821585;29;20047;-84
2022/03/09 03:33:20;;;;;;;7.47;4.47;;;1.10;99.90;;;;;;4821794;29;20187;-84
2022/03/09 03:35:46;;;;;;;8.93;4.47;;;1.20;99.90;;;;;;4821882;29;20061;-84
2022/03/09 03:38:12;;;;;;;9.18;4.68;;;1.20;99.90;;;;;;4822234;29;20065;-84
2022/03/09 03:40:39;;;;;;;7.22;4.35;;;1.20;99.90;;;;;;4821785;29;20504;-84
2022/03/09 03:43:05;;;;;;;7.40;4.53;;;1.30;99.90;;;;;;4821811;29;20070;-84
2022/03/09 03:45:31;;;;;;;9.32;5.00;;;1.30;99.90;;;;;;4822758;29;20066;-84
2022/03/09 03:47:57;;;;;;;7.35;4.63;;;1.90;99.90;;;;;;4812587;29;20413;-84
2022/03/09 03:50:24;;;;;;;9.00;4.97;;;1.40;99.90;;;;;;4821538;29;20053;-84
2022/03/09 03:52:50;;;;;;;7.32;4.47;;;1.40;99.90;;;;;;4821683;29;20050;-84
2022/03/09 03:55:16;;;;;;;8.15;4.57;;;2.00;99.90;;;;;;4806410;29;20087;-84
2022/03/09 03:57:42;;;;;;;9.00;5.22;;;1.90;99.90;;;;;;4818797;29;20062;-84
2022/03/09 04:00:10;;;;;;;9.50;5.30;;;1.10;99.90;;;;;;4827935;29;20492;-84
2022/03/09 04:02:36;;;;;;;9.05;4.90;;;1.10;99.90;;;;;;4818611;29;20122;-84
2022/03/09 04:05:02;;;;;;;7.85;4.57;;;1.30;99.90;;;;;;4821682;29;20054;-84
2022/03/09 04:07:28;;;;;;;8.02;4.82;;;0.80;99.90;;;;;;4822324;29;20046;-84
2022/03/09 04:09:54;;;;;;;7.93;4.65;;;0.70;99.90;;;;;;4821480;29;20058;-85
2022/03/09 04:12:20;;;;;;;8.95;4.20;;;0.60;99.90;;;;;;4806345;29;20484;-84
2022/03/09 04:14:46;;;;;;;11.00;5.00;;;1.30;99.90;;;;;;4821593;29;20065;-84
2022/03/09 04:17:12;;;;;;;7.93;4.88;;;0.50;99.90;;;;;;4818501;29;20469;-84
2022/03/09 04:19:37;;;;;;;7.20;4.93;;;0.50;99.90;;;;;;4818984;29;20420;-85
2022/03/09 04:22:04;;;;;;;10.00;4.95;;;0.40;99.90;;;;;;4824180;29;20145;-84
2022/03/09 04:24:29;;;;;;;7.82;4.60;;;0.40;99.90;;;;;;4824105;29;20083;-84
2022/03/09 04:26:55;;;;;;;13.20;11.80;;;0.40;99.90;;;;;;4822553;29;20489;-85
2022/03/09 04:29:20;;;;;;;8.77;6.03;;;0.40;99.90;;;;;;4823296;29;20104;-85
2022/03/09 04:31:46;;;;;;;12.88;5.88;;;0.40;99.90;;;;;;4821909;29;20043;-84
2022/03/09 04:34:12;;;;;;;7.75;5.15;;;1.10;99.90;;;;;;4823207;29;20413;-84
2022/03/09 04:36:38;;;;;;;9.27;5.15;;;0.40;99.90;;;;;;4824656;29;20137;-85
2022/03/09 04:39:05;;;;;;;8.32;4.55;;;0.40;99.90;;;;;;4816623;29;20055;-84
2022/03/09 04:41:31;;;;;;;9.73;5.45;;;0.50;99.90;;;;;;4824134;29;20054;-84
2022/03/09 04:43:56;;;;;;;8.50;5.72;;;0.40;99.90;;;;;;4824369;29;20381;-85
2022/03/09 04:46:22;;;;;;;8.93;5.18;;;0.40;99.90;;;;;;4839763;29;20062;-85
2022/03/09 04:48:49;;;;;;;8.15;4.68;;;0.30;99.90;;;;;;4824448;29;20061;-84
2022/03/09 04:51:15;;;;;;;11.68;5.32;;;0.30;99.90;;;;;;4824109;29;20054;-85
2022/03/09 04:53:41;;;;;;;9.75;5.65;;;0.20;99.90;;;;;;4824396;29;20122;-84
2022/03/09 04:56:07;;;;;;;10.27;4.80;;;0.20;99.90;;;;;;4823553;29;20051;-84
2022/03/09 04:58:33;;;;;;;9.50;5.60;;;0.10;99.90;;;;;;4840227;29;20118;-85
2022/03/09 05:00:59;;;;;;;8.13;5.35;;;0.70;99.90;;;;;;4824114;29;20093;-84
2022/03/09 05:03:24;;;;;;;11.25;5.68;;;0.30;99.90;;;;;;4821153;29;20528;-85
2022/03/09 05:05:50;;;;;;;11.50;6.20;;;0.20;99.90;;;;;;4821858;29;20111;-84
2022/03/09 05:08:16;;;;;;;8.63;5.00;;;0.30;99.90;;;;;;4839254;29;20056;-85
2022/03/09 05:10:41;;;;;;;9.18;5.13;;;1.10;99.90;;;;;;4823556;29;20420;-85
2022/03/09 05:13:07;;;;;;;9.55;5.32;;;0.40;99.90;;;;;;4823347;29;20065;-85
2022/03/09 05:15:33;;;;;;;10.52;5.55;;;0.40;99.90;;;;;;4823605;29;20054;-85
2022/03/09 05:17:58;;;;;;;10.13;5.35;;;0.40;99.90;;;;;;4823701;29;20133;-84
2022/03/09 05:20:24;;;;;;;8.10;5.13;;;0.40;99.90;;;;;;4823986;29;20065;-85
2022/03/09 05:22:51;;;;;;;12.75;5.70;;;1.10;99.90;;;;;;4839259;29;20046;-85
2022/03/09 05:25:17;;;;;;;8.85;5.53;;;0.30;99.90;;;;;;4823511;29;20058;-85
2022/03/09 05:27:43;;;;;;;8.93;5.53;;;0.20;99.90;;;;;;4823196;29;20060;-85
2022/03/09 05:30:09;;;;;;;8.00;4.57;;;0.10;99.90;;;;;;4823492;29;20078;-85
2022/03/09 05:32:36;;;;;;;11.07;5.45;;;0.00;99.90;;;;;;4822704;29;20054;-85
2022/03/09 05:35:03;;;;;;;9.20;5.20;;;-0.10;99.90;;;;;;4823794;29;20050;-85
2022/03/09 05:37:29;;;;;;;8.25;4.97;;;-0.10;99.90;;;;;;4824601;29;20065;-85
2022/03/09 05:39:55;;;;;;;7.93;4.78;;;-0.30;99.90;;;;;;4823375;29;20058;-85
2022/03/09 05:42:21;;;;;;;8.05;5.25;;;-0.40;99.90;;;;;;4822895;29;20046;-85
2022/03/09 05:44:47;;;;;;;8.77;5.40;;;0.10;99.90;;;;;;4823327;29;20125;-85
2022/03/09 05:47:12;;;;;;;9.73;5.53;;;-0.60;99.90;;;;;;4838726;29;20120;-85
2022/03/09 05:49:38;;;;;;;12.60;5.55;;;-0.60;99.90;;;;;;4823094;29;20054;-85
2022/03/09 05:52:04;;;;;;;10.18;5.40;;;0.10;99.90;;;;;;4823631;29;20062;-85
2022/03/09 05:54:30;;;;;;;11.07;5.53;;;-0.80;99.90;;;;;;4823168;29;20050;-85
2022/03/09 05:56:55;;;;;;;9.10;5.38;;;-0.80;99.90;;;;;;4834850;29;20565;-84
2022/03/09 05:59:21;;;;;;;11.80;5.72;;;-0.70;99.90;;;;;;4838013;29;20069;-85
2022/03/09 06:01:47;;;;;;;11.05;5.45;;;-0.70;99.90;;;;;;4799662;29;20050;-85
2022/03/09 06:04:13;;;;;;;9.20;5.45;;;-0.70;99.90;;;;;;4823353;29;20080;-85
2022/03/09 06:06:38;;;;;;;7.72;4.97;;;-0.60;99.90;;;;;;4823228;29;20058;-85
2022/03/09 06:09:04;;;;;;;9.40;5.32;;;-0.30;99.90;;;;;;4823072;29;20446;-85
2022/03/09 06:11:30;;;;;;;8.27;5.07;;;-0.60;99.90;;;;;;4823250;29;20145;-85
2022/03/09 06:13:56;;;;;;;7.82;4.95;;;-0.60;99.90;;;;;;4823155;29;20050;-85
2022/03/09 06:16:21;;;;;;;10.43;5.10;;;-0.60;99.90;;;;;;4808817;29;20493;-86
2022/03/09 06:18:47;;;;;;;11.82;6.25;;;-0.50;99.90;;;;;;4819624;29;20457;-85
2022/03/09 06:21:13;;;;;;;10.55;5.88;;;0.10;99.90;;;;;;4822812;29;20062;-85
2022/03/09 06:23:39;;;;;;;10.07;5.95;;;-0.50;99.90;;;;;;4822730;29;20500;-85
2022/03/09 06:26:05;;;;;;;9.35;6.38;;;-0.40;99.90;;;;;;4837889;29;20050;-85
2022/03/09 06:28:31;;;;;;;10.80;5.30;;;-0.40;99.90;;;;;;4822551;29;20079;-86
2022/03/09 06:30:57;;;;;;;9.35;5.28;;;-0.40;99.90;;;;;;4822282;29;20396;-86
2022/03/09 06:33:23;;;;;;;12.20;6.47;;;-0.30;99.90;;;;;;4822987;29;21804;-85
2022/03/09 06:35:49;;;;;;;10.30;5.70;;;-0.30;99.90;;;;;;4838089;29;20101;-85
2022/03/09 06:38:15;;;;;;;10.20;6.15;;;-0.20;99.90;;;;;;4813543;29;20192;-85
2022/03/09 06:40:41;;;;;;;9.88;5.75;;;-0.10;99.90;;;;;;4837263;29;20542;-85
2022/03/09 06:43:07;;;;;;;11.48;5.85;;;-0.10;99.90;;;;;;4804149;29;20084;-85
2022/03/09 06:45:33;;;;;;;9.57;5.03;;;1.20;99.90;;;;;;4822475;29;20496;-85
2022/03/09 06:48:00;;;;;;;10.68;5.97;;;0.00;99.90;;;;;;4822292;29;20054;-86
2022/03/09 06:50:25;;;;;;;10.82;5.65;;;0.60;99.90;;;;;;4822555;29;20061;-86
2022/03/09 06:52:51;;;;;;;8.60;5.60;;;0.10;99.90;;;;;;4822518;29;20459;-85
2022/03/09 06:55:17;;;;;;;11.50;5.70;;;0.20;99.90;;;;;;4821984;29;20054;-85
2022/03/09 06:57:43;;;;;;;10.30;5.85;;;0.30;99.90;;;;;;4796225;29;20098;-86
2022/03/09 07:00:12;;;;;;;10.43;5.82;;;0.30;99.90;;;;;;4825825;29;20059;-85
2022/03/09 07:02:38;;;;;;;10.98;5.68;;;0.40;99.90;;;;;;4815916;29;20098;-85
2022/03/09 07:05:05;;;;;;;11.48;6.97;;;0.40;99.90;;;;;;4822427;29;20073;-86
2022/03/09 07:07:32;;;;;;;9.35;5.43;;;0.50;99.90;;;;;;4824985;29;20086;-83
2022/03/09 07:09:58;;;;;;;9.18;6.07;;;1.00;99.90;;;;;;4807018;29;20050;-84
2022/03/09 07:12:24;;;;;;;13.38;6.78;;;0.60;99.90;;;;;;4819598;29;20152;-83
2022/03/09 07:14:50;;;;;;;10.25;6.20;;;0.70;99.90;;;;;;4823745;29;20050;-84
2022/03/09 07:17:16;;;;;;;12.50;6.13;;;0.80;99.90;;;;;;4822237;29;20058;-83
2022/03/09 07:19:42;;;;;;;10.20;5.90;;;0.80;99.90;;;;;;4822071;29;20054;-84
2022/03/09 07:22:07;;;;;;;11.40;6.72;;;1.00;99.90;;;;;;4823317;29;20050;-83
2022/03/09 07:24:34;;;;;;;8.57;5.70;;;1.00;99.90;;;;;;4836872;29;20409;-84
2022/03/09 07:27:00;;;;;;;9.75;6.00;;;1.10;99.90;;;;;;4821709;29;20058;-84
2022/03/09 07:29:25;;;;;;;9.80;5.90;;;1.70;99.90;;;;;;4822100;29;20050;-84
2022/03/09 07:31:52;;;;;;;9.95;6.20;;;1.70;99.90;;;;;;4822810;29;20050;-84
2022/03/09 07:34:20;;;;;;;9.20;5.55;;;2.20;99.90;;;;;;4822700;29;20359;-84
2022/03/09 07:36:46;;;;;;;9.55;6.07;;;1.50;99.90;;;;;;4822977;29;20051;-84
2022/03/09 07:39:11;;;;;;;11.68;5.60;;;1.60;99.90;;;;;;4823111;29;20050;-84
2022/03/09 07:41:37;;;;;;;10.68;5.80;;;1.70;99.90;;;;;;4821762;29;20053;-84
2022/03/09 07:44:03;;;;;;;9.75;6.25;;;1.80;99.90;;;;;;4817369;29;20050;-84
2022/03/09 07:46:28;;;;;;;8.93;5.57;;;1.90;99.90;;;;;;4821569;29;20129;-84
2022/03/09 07:48:54;;;;;;;11.52;6.05;;;2.00;99.90;;;;;;4821822;29;20058;-84
2022/03/09 07:51:20;;;;;;;10.45;6.28;;;2.10;99.90;;;;;;4836378;29;20068;-84
2022/03/09 07:53:45;;;;;;;10.75;5.95;;;2.50;99.90;;;;;;4836735;29;20058;-84
2022/03/09 07:56:12;;;;;;;10.40;6.18;;;2.60;99.90;;;;;;4838155;29;20054;-85
2022/03/09 07:58:39;;;;;;;10.15;6.45;;;2.60;99.90;;;;;;4824022;29;20077;-84
2022/03/09 08:01:05;;;;;;;10.80;6.55;;;3.20;99.90;;;;;;4826132;29;20063;-84
2022/03/09 08:03:32;;;;;;;10.15;5.82;;;2.70;99.90;;;;;;4824044;29;20065;-84
2022/03/09 08:05:58;;;;;;;11.43;6.15;;;2.70;99.90;;;;;;4825811;29;20061;-84
2022/03/09 08:08:24;;;;;;;11.13;5.75;;;2.90;99.90;;;;;;4827916;29;20088;-84
2022/03/09 08:10:50;;;;;;;9.70;5.90;;;3.10;99.90;;;;;;4810043;29;20051;-84
2022/03/09 08:13:16;;;;;;;11.18;6.10;;;3.90;99.90;;;;;;4825257;29;20054;-84
2022/03/09 08:15:42;;;;;;;10.05;6.32;;;3.30;99.90;;;;;;4818985;29;20107;-88
2022/03/09 08:18:08;;;;;;;9.77;5.82;;;3.50;99.90;;;;;;4806191;29;20059;-87
2022/03/09 08:20:35;;;;;;;11.23;5.72;;;3.60;99.90;;;;;;4824844;29;20227;-87
2022/03/09 08:23:01;;;;;;;9.05;5.43;;;3.90;99.90;;;;;;4824494;29;20114;-87
2022/03/09 08:25:27;;;;;;;8.57;5.15;;;3.90;99.90;;;;;;4839407;29;20087;-86
2022/03/09 08:27:52;;;;;;;9.93;6.03;;;4.10;99.90;;;;;;4823718;29;20541;-87
2022/03/09 08:30:18;;;;;;;8.40;5.45;;;4.40;99.90;;;;;;4825014;29;20050;-86
2022/03/09 08:32:44;;;;;;;9.60;5.97;;;4.40;99.90;;;;;;4820470;29;20062;-87
2022/03/09 08:35:10;;;;;;;10.75;6.05;;;4.90;99.90;;;;;;4820570;29;20161;-87
2022/03/09 08:37:35;;;;;;;7.50;5.65;;;5.00;99.90;;;;;;4808891;29;20054;-86
2022/03/09 08:40:02;;;;;;;9.30;5.25;;;4.90;99.90;;;;;;4837007;29;20062;-86
2022/03/09 08:42:28;;;;;;;8.77;5.35;;;5.10;99.90;;;;;;4831240;29;20054;-86
2022/03/09 08:44:53;;;;;;;9.20;5.40;;;5.30;99.90;;;;;;4819985;29;20102;-85
2022/03/09 08:47:19;;;;;;;7.78;4.43;;;5.50;99.90;;;;;;4837299;29;20058;-86
2022/03/09 08:49:45;;;;;;;8.45;5.32;;;5.60;99.90;;;;;;4816586;29;20047;-86
2022/03/09 08:52:12;;;;;;;8.70;5.43;;;5.70;99.90;;;;;;4806590;29;20078;-86
2022/03/09 08:54:40;;;;;;;9.60;5.72;;;5.90;99.90;;;;;;4835711;29;20505;-86
2022/03/09 08:57:06;;;;;;;10.75;5.70;;;6.00;99.90;;;;;;4805476;29;20059;-84
2022/03/09 08:59:32;;;;;;;7.20;5.35;;;6.10;99.90;;;;;;4825950;29;20514;-83
2022/03/09 09:01:58;;;;;;;11.80;5.35;;;6.40;99.90;;;;;;4810693;29;20082;-85
2022/03/09 09:04:24;;;;;;;9.10;5.32;;;6.40;99.90;;;;;;4810054;29;20092;-83
2022/03/09 09:06:50;;;;;;;7.90;5.00;;;6.50;99.90;;;;;;4821329;29;20403;-85
2022/03/09 09:09:17;;;;;;;8.88;5.18;;;6.70;99.90;;;;;;4815127;29;20125;-85
2022/03/09 09:11:43;;;;;;;6.85;4.70;;;6.90;99.90;;;;;;4812835;29;20163;-83
2022/03/09 09:14:09;;;;;;;7.60;5.10;;;7.20;99.90;;;;;;4805675;29;20069;-83
2022/03/09 09:16:35;;;;;;;8.02;4.65;;;7.10;99.90;;;;;;4806362;29;20489;-84
2022/03/09 09:19:02;;;;;;;9.32;5.15;;;7.10;99.90;;;;;;4810021;29;20055;-84
2022/03/09 09:21:28;;;;;;;9.27;5.22;;;7.20;99.90;;;;;;4806631;29;20050;-83
2022/03/09 09:23:54;;;;;;;7.88;4.57;;;7.40;99.90;;;;;;4806553;29;20551;-84
2022/03/09 09:26:20;;;;;;;8.00;4.85;;;7.50;99.90;;;;;;4821325;29;20668;-84
2022/03/09 09:28:46;;;;;;;7.57;4.90;;;7.60;99.90;;;;;;4809558;29;20063;-84
2022/03/09 09:31:12;;;;;;;9.32;5.43;;;7.70;99.90;;;;;;4816521;29;20445;-84
2022/03/09 09:33:38;;;;;;;8.90;5.28;;;7.70;99.90;;;;;;4805312;29;20477;-84
2022/03/09 09:36:04;;;;;;;8.85;4.97;;;7.80;99.90;;;;;;4826583;29;20061;-87
2022/03/09 09:38:30;;;;;;;7.72;5.10;;;7.80;99.90;;;;;;4821704;29;20054;-88
2022/03/09 09:40:56;;;;;;;8.30;4.70;;;7.80;99.90;;;;;;4813090;29;20054;-87
2022/03/09 09:43:24;;;;;;;7.80;4.38;;;7.80;99.90;;;;;;4809875;29;20053;-87
2022/03/09 09:45:51;;;;;;;9.48;5.53;;;7.80;99.90;;;;;;4813208;29;20061;-87
2022/03/09 09:48:20;;;;;;;10.68;4.78;;;8.00;99.90;;;;;;4822401;29;20519;-88
2022/03/09 09:50:46;;;;;;;7.10;4.95;;;8.10;99.90;;;;;;4816254;29;20058;-87
2022/03/09 09:53:14;;;;;;;8.68;4.97;;;8.20;99.90;;;;;;4805824;29;20054;-88
2022/03/09 09:55:41;;;;;;;9.40;5.10;;;8.30;99.90;;;;;;4806525;29;20059;-90
2022/03/09 09:58:07;;;;;;;10.32;5.13;;;8.40;99.90;;;;;;4833448;29;20512;-87
2022/03/09 10:00:34;;;;;;;8.82;4.80;;;8.60;99.90;;;;;;4818062;29;20063;-86
2022/03/09 10:02:59;;;;;;;8.35;5.30;;;8.60;99.90;;;;;;4834307;29;20054;-87
2022/03/09 10:05:25;;;;;;;7.82;5.22;;;8.70;99.90;;;;;;4823212;29;20046;-87
2022/03/09 10:08:03;;;;;;;8.00;4.93;;;9.00;99.90;;;;;;4816795;29;20080;-86
2022/03/09 10:10:30;;;;;;;8.40;5.35;;;9.10;99.90;;;;;;4811428;29;20057;-87
2022/03/09 10:13:18;;;;;;;8.68;5.90;;;9.30;99.90;;;;;;4833091;29;20066;-89
2022/03/09 10:15:46;;;;;;;7.43;5.28;;;9.40;99.90;;;;;;4813873;29;20129;-87
2022/03/09 10:18:20;;;;;;;9.80;5.55;;;9.70;99.90;;;;;;4805597;29;20067;-87
2022/03/09 10:20:50;;;;;;;10.85;5.53;;;10.10;99.90;;;;;;4814717;29;20046;-87
2022/03/09 10:23:17;;;;;;;9.25;5.65;;;10.40;99.90;;;;;;4806818;29;20051;-86
2022/03/09 10:25:46;;;;;;;8.00;5.03;;;10.70;99.90;;;;;;4805455;29;20127;-86
2022/03/09 10:28:12;;;;;;;11.48;6.20;;;10.80;99.90;;;;;;4819477;29;20115;-87
2022/03/09 10:30:40;;;;;;;8.43;5.53;;;11.10;99.90;;;;;;4814385;29;20070;-88
2022/03/09 10:33:08;;;;;;;7.47;5.30;;;11.30;99.90;;;;;;4812172;29;20047;-87
2022/03/09 10:35:34;;;;;;;7.97;5.20;;;11.30;99.90;;;;;;4805654;29;20063;-88
2022/03/09 10:38:02;;;;;;;10.02;6.13;;;11.30;99.90;;;;;;4803995;29;20108;-89
2022/03/09 10:40:30;;;;;;;8.35;5.45;;;11.30;99.90;;;;;;4804241;29;20449;-89
2022/03/09 10:43:18;;;;;;;10.00;6.03;;;11.40;99.90;;;;;;4813546;29;20089;-87
2022/03/09 10:46:10;;;;;;;8.80;5.70;;;11.50;99.70;;;;;;4804405;29;20391;-88
2022/03/09 10:49:00;;;;;;;7.65;5.40;;;11.50;99.30;;;;;;4805675;29;20054;-83
2022/03/09 10:51:38;;;;;;;9.52;5.25;;;11.40;99.90;;;;;;4803410;29;20058;-84
2022/03/09 10:54:06;;;;;;;8.48;5.72;;;11.60;99.90;;;;;;4834553;29;20115;-83
2022/03/09 10:56:33;;;;;;;9.88;5.63;;;11.80;99.90;;;;;;4810116;29;20049;-83
2022/03/09 10:59:15;;;;;;;9.27;5.47;;;11.80;99.30;;;;;;4828374;29;20531;-83
2022/03/09 11:01:42;;;;;;;8.80;5.68;;;11.90;96.10;;;;;;4803800;29;20157;-83
2022/03/09 11:04:16;;;;;;;8.43;5.85;;;11.70;96.50;;;;;;4804452;29;20050;-85
2022/03/09 11:06:49;;;;;;;10.07;5.47;;;11.70;95.60;;;;;;4836556;29;20054;-87
2022/03/09 11:09:17;;;;;;;9.20;6.20;;;11.90;96.70;;;;;;4819164;29;20104;-85
2022/03/09 11:11:46;;;;;;;8.27;5.68;;;12.10;96.30;;;;;;4833462;29;20039;-85
2022/03/09 11:14:13;;;;;;;10.57;6.18;;;12.10;95.00;;;;;;4834006;29;20380;-84
2022/03/09 11:16:41;;;;;;;7.75;5.70;;;12.30;95.90;;;;;;4820775;29;20416;-85
2022/03/09 11:19:07;;;;;;;8.52;6.05;;;12.40;96.30;;;;;;4811002;29;20046;-88
2022/03/09 11:21:35;;;;;;;9.73;5.72;;;12.40;95.70;;;;;;4804560;29;20134;-85
2022/03/09 11:24:07;;;;;;;9.18;5.32;;;12.40;94.80;;;;;;4803858;29;20063;-87
2022/03/09 11:26:36;;;;;;;8.32;6.05;;;12.40;95.00;;;;;;4809685;29;20317;-85
2022/03/09 11:29:08;;;;;;;9.98;6.28;;;12.60;95.10;;;;;;4806664;29;20732;-85
2022/03/09 11:31:51;;;;;;;9.40;5.90;;;12.80;94.20;;;;;;4815872;29;20115;-84
2022/03/09 11:34:30;;;;;;;8.23;5.85;;;13.00;93.00;;;;;;4821866;29;20042;-84
2022/03/09 11:36:59;;;;;;;9.02;5.72;;;13.10;90.50;;;;;;4822687;29;20099;-88
2022/03/09 11:39:25;;;;;;;7.78;5.20;;;13.00;92.50;;;;;;4809022;29;20527;-83
2022/03/09 11:42:22;;;;;;;9.07;5.45;;;12.90;92.20;;;;;;4803480;29;20054;-87
2022/03/09 11:44:52;;;;;;;8.27;5.55;;;13.10;92.50;;;;;;4835184;29;20055;-88
2022/03/09 11:47:19;;;;;;;7.38;5.78;;;13.30;91.90;;;;;;4801787;29;20059;-86
2022/03/09 11:49:49;;;;;;;9.75;5.72;;;13.30;92.50;;;;;;4817883;29;20108;-86
2022/03/09 11:52:17;;;;;;;9.05;5.43;;;13.20;91.80;;;;;;4819768;29;20137;-86
2022/03/09 11:54:55;;;;;;;9.95;5.63;;;12.90;90.30;;;;;;4806706;29;20058;-87
2022/03/09 11:57:23;;;;;;;9.07;5.82;;;12.70;85.80;;;;;;4818831;29;20050;-84
2022/03/09 12:00:12;;;;;;;8.48;5.72;;;12.60;88.00;;;;;;4819653;29;20086;-85
2022/03/09 12:02:44;;;;;;;8.40;5.78;;;12.50;84.30;;;;;;4827007;29;20055;-85
2022/03/09 12:05:35;;;;;;;9.07;5.45;;;12.50;86.20;;;;;;4803419;29;20514;-86
2022/03/09 12:08:02;;;;;;;8.02;5.38;;;12.50;89.30;;;;;;4825940;29;20607;-86
2022/03/09 12:10:41;;;;;;;7.25;5.60;;;12.80;86.40;;;;;;4837764;29;20261;-88
2022/03/09 12:13:38;;;;;;;9.48;5.90;;;13.00;86.00;;;;;;4820797;29;20055;-86
2022/03/09 12:16:17;;;;;;;9.00;5.70;;;12.90;85.50;;;;;;4812448;29;20500;-87
2022/03/09 12:19:00;;;;;;;10.20;6.47;;;12.70;84.40;;;;;;4833269;29;20051;-85
2022/03/09 12:21:26;;;;;;;7.65;5.55;;;12.70;83.60;;;;;;4803024;29;20059;-85
2022/03/09 12:24:04;;;;;;;8.45;5.25;;;12.60;84.60;;;;;;4803115;29;20054;-88
2022/03/09 12:26:50;;;;;;;15.35;5.63;;;12.50;81.30;;;;;;4817277;29;20043;-83
2022/03/09 12:29:21;;;;;;;10.90;5.63;;;12.60;81.70;;;;;;4805026;29;20050;-86
2022/03/09 12:32:17;;;;;;;7.57;5.25;;;12.60;81.90;;;;;;4811516;29;20401;-85
2022/03/09 12:34:48;;;;;;;15.40;5.55;;;13.30;75.60;;;;;;4833731;29;20057;-86
2022/03/09 12:37:16;;;;;;;6.93;5.03;;;14.20;76.60;;;;;;4802615;29;20054;-85
2022/03/09 12:39:50;;;;;;;9.38;5.47;;;14.70;76.70;;;;;;4803483;29;20058;-84
2022/03/09 12:42:18;;;;;;;8.48;5.72;;;15.00;71.60;;;;;;4801042;29;20070;-87
2022/03/09 12:44:44;;;;;;;9.38;6.00;;;15.20;73.30;;;;;;4821156;29;20517;-87
2022/03/09 12:47:10;;;;;;;8.75;6.18;;;15.50;72.70;;;;;;4806588;29;20107;-85
2022/03/09 12:49:46;;;;;;;7.68;5.90;;;15.50;69.50;;;;;;4821165;29;20063;-85
2022/03/09 12:52:17;;;;;;;8.63;6.00;;;15.20;68.40;;;;;;4806276;29;20047;-88
2022/03/09 12:54:48;;;;;;;8.73;5.85;;;15.20;70.70;;;;;;4806536;29;20393;-86
2022/03/09 12:57:25;;;;;;;7.50;5.68;;;15.50;70.30;;;;;;4806822;29;20050;-87